sensor_id;sensor_type;location;lat;lon;timestamp;P1;durP1;ratioP1;P2;durP2;ratioP2
54683;SDS011;40582;53.100;6.686;2023-02-27T00:00:49;11.18;;;4.05;;
54683;SDS011;40582;53.100;6.686;2023-02-27T00:03:15;13.27;;;4.47;;
54683;SDS011;40582;53.100;6.686;2023-02-27T00:05:40;12.60;;;5.78;;
54683;SDS011;40582;53.100;6.686;2023-02-27T00:08:06;17.30;;;6.38;;
54683;SDS011;40582;53.100;6.686;2023-02-27T00:10:32;16.98;;;7.47;;
54683;SDS011;40582;53.100;6.686;2023-02-27T00:12:58;30.35;;;10.75;;
54683;SDS011;40582;53.100;6.686;2023-02-27T00:15:24;48.88;;;15.90;;
54683;SDS011;40582;53.100;6.686;2023-02-27T00:17:49;48.75;;;16.38;;
54683;SDS011;40582;53.100;6.686;2023-02-27T00:20:16;62.28;;;19.58;;
54683;SDS011;40582;53.100;6.686;2023-02-27T00:22:43;48.40;;;17.10;;
54683;SDS011;40582;53.100;6.686;2023-02-27T00:25:09;49.15;;;17.38;;
54683;SDS011;40582;53.100;6.686;2023-02-27T00:27:36;53.78;;;19.92;;
54683;SDS011;40582;53.100;6.686;2023-02-27T00:30:05;54.15;;;19.05;;
54683;SDS011;40582;53.100;6.686;2023-02-27T00:32:32;54.78;;;18.73;;
54683;SDS011;40582;53.100;6.686;2023-02-27T00:34:57;57.13;;;19.80;;
54683;SDS011;40582;53.100;6.686;2023-02-27T00:37:23;63.28;;;21.38;;
54683;SDS011;40582;53.100;6.686;2023-02-27T00:39:49;58.00;;;20.52;;
54683;SDS011;40582;53.100;6.686;2023-02-27T00:42:15;76.15;;;26.40;;
54683;SDS011;40582;53.100;6.686;2023-02-27T00:44:41;77.93;;;27.30;;
54683;SDS011;40582;53.100;6.686;2023-02-27T00:47:06;82.60;;;28.27;;
54683;SDS011;40582;53.100;6.686;2023-02-27T00:49:32;81.57;;;29.25;;
54683;SDS011;40582;53.100;6.686;2023-02-27T00:51:58;80.05;;;28.60;;
54683;SDS011;40582;53.100;6.686;2023-02-27T00:54:23;62.90;;;20.98;;
54683;SDS011;40582;53.100;6.686;2023-02-27T00:56:49;61.08;;;21.65;;
54683;SDS011;40582;53.100;6.686;2023-02-27T00:59:15;56.55;;;20.42;;
54683;SDS011;40582;53.100;6.686;2023-02-27T01:01:41;56.38;;;19.52;;
54683;SDS011;40582;53.100;6.686;2023-02-27T01:04:08;51.42;;;18.08;;
54683;SDS011;40582;53.100;6.686;2023-02-27T01:06:34;29.52;;;11.77;;
54683;SDS011;40582;53.100;6.686;2023-02-27T01:09:00;25.75;;;8.70;;
54683;SDS011;40582;53.100;6.686;2023-02-27T01:11:26;17.80;;;7.43;;
54683;SDS011;40582;53.100;6.686;2023-02-27T01:13:52;14.02;;;5.55;;
54683;SDS011;40582;53.100;6.686;2023-02-27T01:16:18;12.32;;;4.82;;
54683;SDS011;40582;53.100;6.686;2023-02-27T01:18:44;15.20;;;5.18;;
54683;SDS011;40582;53.100;6.686;2023-02-27T01:21:10;11.25;;;5.20;;
54683;SDS011;40582;53.100;6.686;2023-02-27T01:23:36;11.75;;;4.30;;
54683;SDS011;40582;53.100;6.686;2023-02-27T01:26:01;12.23;;;4.45;;
54683;SDS011;40582;53.100;6.686;2023-02-27T01:28:27;11.68;;;4.63;;
54683;SDS011;40582;53.100;6.686;2023-02-27T01:30:53;12.88;;;4.32;;
54683;SDS011;40582;53.100;6.686;2023-02-27T01:33:18;10.38;;;4.10;;
54683;SDS011;40582;53.100;6.686;2023-02-27T01:35:44;9.60;;;3.78;;
54683;SDS011;40582;53.100;6.686;2023-02-27T01:38:10;11.48;;;4.28;;
54683;SDS011;40582;53.100;6.686;2023-02-27T01:40:36;8.50;;;3.90;;
54683;SDS011;40582;53.100;6.686;2023-02-27T01:43:03;9.02;;;3.78;;
54683;SDS011;40582;53.100;6.686;2023-02-27T01:48:08;10.20;;;3.72;;
54683;SDS011;40582;53.100;6.686;2023-02-27T01:51:02;15.32;;;4.72;;
54683;SDS011;40582;53.100;6.686;2023-02-27T01:53:40;10.73;;;3.92;;
54683;SDS011;40582;53.100;6.686;2023-02-27T01:56:27;10.60;;;4.15;;
54683;SDS011;40582;53.100;6.686;2023-02-27T01:58:56;10.75;;;4.18;;
54683;SDS011;40582;53.100;6.686;2023-02-27T02:01:25;11.23;;;3.90;;
54683;SDS011;40582;53.100;6.686;2023-02-27T02:03:54;7.93;;;3.35;;
54683;SDS011;40582;53.100;6.686;2023-02-27T02:06:35;7.53;;;3.85;;
54683;SDS011;40582;53.100;6.686;2023-02-27T02:09:03;10.70;;;3.50;;
54683;SDS011;40582;53.100;6.686;2023-02-27T02:11:31;10.10;;;4.15;;
54683;SDS011;40582;53.100;6.686;2023-02-27T02:13:57;8.02;;;3.35;;
54683;SDS011;40582;53.100;6.686;2023-02-27T02:21:41;11.40;;;4.47;;
54683;SDS011;40582;53.100;6.686;2023-02-27T02:27:24;8.43;;;4.10;;
54683;SDS011;40582;53.100;6.686;2023-02-27T02:33:06;8.88;;;3.78;;
54683;SDS011;40582;53.100;6.686;2023-02-27T02:36:06;8.10;;;3.92;;
54683;SDS011;40582;53.100;6.686;2023-02-27T02:41:59;8.82;;;4.53;;
54683;SDS011;40582;53.100;6.686;2023-02-27T02:44:38;6.75;;;3.55;;
54683;SDS011;40582;53.100;6.686;2023-02-27T02:49:57;6.90;;;3.65;;
54683;SDS011;40582;53.100;6.686;2023-02-27T02:52:31;7.63;;;3.70;;
54683;SDS011;40582;53.100;6.686;2023-02-27T02:58:17;8.80;;;3.72;;
54683;SDS011;40582;53.100;6.686;2023-02-27T03:01:00;9.23;;;3.47;;
54683;SDS011;40582;53.100;6.686;2023-02-27T03:03:52;9.10;;;3.58;;
54683;SDS011;40582;53.100;6.686;2023-02-27T03:06:22;5.57;;;3.47;;
54683;SDS011;40582;53.100;6.686;2023-02-27T03:08:57;8.23;;;3.97;;
54683;SDS011;40582;53.100;6.686;2023-02-27T03:11:30;10.07;;;3.28;;
54683;SDS011;40582;53.100;6.686;2023-02-27T03:17:04;9.10;;;3.65;;
54683;SDS011;40582;53.100;6.686;2023-02-27T03:20:09;7.15;;;3.72;;
54683;SDS011;40582;53.100;6.686;2023-02-27T03:22:31;9.63;;;3.92;;
54683;SDS011;40582;53.100;6.686;2023-02-27T03:25:02;12.25;;;3.83;;
54683;SDS011;40582;53.100;6.686;2023-02-27T03:27:32;5.85;;;3.80;;
54683;SDS011;40582;53.100;6.686;2023-02-27T03:30:07;15.98;;;3.97;;
54683;SDS011;40582;53.100;6.686;2023-02-27T03:35:09;6.55;;;3.83;;
54683;SDS011;40582;53.100;6.686;2023-02-27T03:37:56;7.25;;;3.38;;
54683;SDS011;40582;53.100;6.686;2023-02-27T03:40:32;10.18;;;3.90;;
54683;SDS011;40582;53.100;6.686;2023-02-27T03:43:06;9.35;;;3.70;;
54683;SDS011;40582;53.100;6.686;2023-02-27T03:46:00;8.15;;;3.13;;
54683;SDS011;40582;53.100;6.686;2023-02-27T03:48:38;14.38;;;4.18;;
54683;SDS011;40582;53.100;6.686;2023-02-27T03:51:09;4.47;;;3.30;;
54683;SDS011;40582;53.100;6.686;2023-02-27T03:53:45;6.10;;;3.28;;
54683;SDS011;40582;53.100;6.686;2023-02-27T03:56:12;11.70;;;3.72;;
54683;SDS011;40582;53.100;6.686;2023-02-27T03:58:40;8.07;;;3.70;;
54683;SDS011;40582;53.100;6.686;2023-02-27T04:01:06;8.43;;;3.72;;
54683;SDS011;40582;53.100;6.686;2023-02-27T04:03:33;11.98;;;3.85;;
54683;SDS011;40582;53.100;6.686;2023-02-27T04:06:03;7.97;;;3.95;;
54683;SDS011;40582;53.100;6.686;2023-02-27T04:09:02;9.68;;;3.85;;
54683;SDS011;40582;53.100;6.686;2023-02-27T04:19:36;7.35;;;3.88;;
54683;SDS011;40582;53.100;6.686;2023-02-27T04:24:57;8.20;;;3.90;;
54683;SDS011;40582;53.100;6.686;2023-02-27T04:30:10;9.00;;;4.03;;
54683;SDS011;40582;53.100;6.686;2023-02-27T04:38:16;10.85;;;4.10;;
54683;SDS011;40582;53.100;6.686;2023-02-27T04:43:21;10.68;;;3.88;;
54683;SDS011;40582;53.100;6.686;2023-02-27T04:45:49;9.77;;;4.45;;
54683;SDS011;40582;53.100;6.686;2023-02-27T04:48:18;7.65;;;4.18;;
54683;SDS011;40582;53.100;6.686;2023-02-27T04:50:49;10.55;;;4.90;;
54683;SDS011;40582;53.100;6.686;2023-02-27T04:53:23;9.95;;;4.53;;
54683;SDS011;40582;53.100;6.686;2023-02-27T04:55:58;11.02;;;4.97;;
54683;SDS011;40582;53.100;6.686;2023-02-27T04:58:29;12.88;;;5.30;;
54683;SDS011;40582;53.100;6.686;2023-02-27T05:01:00;15.07;;;5.20;;
54683;SDS011;40582;53.100;6.686;2023-02-27T05:03:36;13.98;;;5.25;;
54683;SDS011;40582;53.100;6.686;2023-02-27T05:06:07;8.63;;;4.38;;
54683;SDS011;40582;53.100;6.686;2023-02-27T05:11:28;9.25;;;4.55;;
54683;SDS011;40582;53.100;6.686;2023-02-27T05:16:49;11.70;;;4.88;;
54683;SDS011;40582;53.100;6.686;2023-02-27T05:19:19;8.80;;;4.70;;
54683;SDS011;40582;53.100;6.686;2023-02-27T05:22:01;13.95;;;5.63;;
54683;SDS011;40582;53.100;6.686;2023-02-27T05:30:32;10.30;;;4.53;;
54683;SDS011;40582;53.100;6.686;2023-02-27T05:33:23;13.02;;;5.18;;
54683;SDS011;40582;53.100;6.686;2023-02-27T05:36:02;10.52;;;5.00;;
54683;SDS011;40582;53.100;6.686;2023-02-27T05:38:35;8.63;;;4.50;;
54683;SDS011;40582;53.100;6.686;2023-02-27T05:41:12;7.68;;;4.57;;
54683;SDS011;40582;53.100;6.686;2023-02-27T05:43:43;10.02;;;4.80;;
54683;SDS011;40582;53.100;6.686;2023-02-27T05:46:23;9.43;;;4.65;;
54683;SDS011;40582;53.100;6.686;2023-02-27T05:48:54;11.90;;;4.88;;
54683;SDS011;40582;53.100;6.686;2023-02-27T05:51:23;9.43;;;4.60;;
54683;SDS011;40582;53.100;6.686;2023-02-27T05:53:54;7.47;;;4.40;;
54683;SDS011;40582;53.100;6.686;2023-02-27T05:56:25;13.65;;;4.40;;
54683;SDS011;40582;53.100;6.686;2023-02-27T05:59:38;9.98;;;4.40;;
54683;SDS011;40582;53.100;6.686;2023-02-27T06:01:58;12.95;;;4.95;;
54683;SDS011;40582;53.100;6.686;2023-02-27T06:04:24;9.32;;;4.10;;
54683;SDS011;40582;53.100;6.686;2023-02-27T06:06:50;9.90;;;4.25;;
54683;SDS011;40582;53.100;6.686;2023-02-27T06:09:16;10.68;;;4.43;;
54683;SDS011;40582;53.100;6.686;2023-02-27T06:11:42;6.85;;;4.10;;
54683;SDS011;40582;53.100;6.686;2023-02-27T06:14:07;7.15;;;4.40;;
54683;SDS011;40582;53.100;6.686;2023-02-27T06:16:33;9.15;;;3.95;;
54683;SDS011;40582;53.100;6.686;2023-02-27T06:19:02;12.52;;;4.32;;
54683;SDS011;40582;53.100;6.686;2023-02-27T06:21:28;9.52;;;4.03;;
54683;SDS011;40582;53.100;6.686;2023-02-27T06:23:54;14.23;;;4.57;;
54683;SDS011;40582;53.100;6.686;2023-02-27T06:26:19;10.70;;;4.65;;
54683;SDS011;40582;53.100;6.686;2023-02-27T06:28:45;9.73;;;4.38;;
54683;SDS011;40582;53.100;6.686;2023-02-27T06:31:11;13.73;;;5.32;;
54683;SDS011;40582;53.100;6.686;2023-02-27T06:33:36;7.82;;;4.50;;
54683;SDS011;40582;53.100;6.686;2023-02-27T06:36:02;7.60;;;4.00;;
54683;SDS011;40582;53.100;6.686;2023-02-27T06:38:28;14.68;;;4.88;;
54683;SDS011;40582;53.100;6.686;2023-02-27T06:40:54;11.43;;;4.20;;
54683;SDS011;40582;53.100;6.686;2023-02-27T06:43:19;7.82;;;4.03;;
54683;SDS011;40582;53.100;6.686;2023-02-27T06:45:47;16.23;;;4.47;;
54683;SDS011;40582;53.100;6.686;2023-02-27T06:48:13;11.40;;;4.70;;
54683;SDS011;40582;53.100;6.686;2023-02-27T06:50:39;12.43;;;4.70;;
54683;SDS011;40582;53.100;6.686;2023-02-27T06:53:05;10.52;;;4.10;;
54683;SDS011;40582;53.100;6.686;2023-02-27T06:55:31;8.70;;;4.03;;
54683;SDS011;40582;53.100;6.686;2023-02-27T06:57:57;15.85;;;4.22;;
54683;SDS011;40582;53.100;6.686;2023-02-27T07:00:23;17.75;;;4.90;;
54683;SDS011;40582;53.100;6.686;2023-02-27T07:02:49;24.05;;;5.53;;
54683;SDS011;40582;53.100;6.686;2023-02-27T07:05:14;17.35;;;4.68;;
54683;SDS011;40582;53.100;6.686;2023-02-27T07:07:40;13.10;;;4.95;;
54683;SDS011;40582;53.100;6.686;2023-02-27T07:10:07;12.02;;;4.55;;
54683;SDS011;40582;53.100;6.686;2023-02-27T07:12:35;11.75;;;4.22;;
54683;SDS011;40582;53.100;6.686;2023-02-27T07:15:02;11.20;;;4.63;;
54683;SDS011;40582;53.100;6.686;2023-02-27T07:17:28;7.63;;;4.35;;
54683;SDS011;40582;53.100;6.686;2023-02-27T07:19:55;12.10;;;4.80;;
54683;SDS011;40582;53.100;6.686;2023-02-27T07:22:21;15.70;;;4.47;;
54683;SDS011;40582;53.100;6.686;2023-02-27T07:24:47;9.57;;;4.35;;
54683;SDS011;40582;53.100;6.686;2023-02-27T07:27:13;9.40;;;4.57;;
54683;SDS011;40582;53.100;6.686;2023-02-27T07:29:38;10.30;;;5.10;;
54683;SDS011;40582;53.100;6.686;2023-02-27T07:32:04;14.40;;;5.75;;
54683;SDS011;40582;53.100;6.686;2023-02-27T07:34:30;11.40;;;5.05;;
54683;SDS011;40582;53.100;6.686;2023-02-27T07:36:55;10.80;;;4.63;;
54683;SDS011;40582;53.100;6.686;2023-02-27T07:39:21;14.70;;;4.68;;
54683;SDS011;40582;53.100;6.686;2023-02-27T07:41:47;13.63;;;5.00;;
54683;SDS011;40582;53.100;6.686;2023-02-27T07:44:13;10.45;;;4.60;;
54683;SDS011;40582;53.100;6.686;2023-02-27T07:46:38;8.90;;;4.68;;
54683;SDS011;40582;53.100;6.686;2023-02-27T07:49:04;11.43;;;4.63;;
54683;SDS011;40582;53.100;6.686;2023-02-27T07:51:30;10.82;;;4.25;;
54683;SDS011;40582;53.100;6.686;2023-02-27T07:53:56;9.93;;;4.28;;
54683;SDS011;40582;53.100;6.686;2023-02-27T07:56:22;10.23;;;4.07;;
54683;SDS011;40582;53.100;6.686;2023-02-27T07:58:49;14.23;;;4.32;;
54683;SDS011;40582;53.100;6.686;2023-02-27T08:01:14;9.90;;;3.83;;
54683;SDS011;40582;53.100;6.686;2023-02-27T08:03:40;12.27;;;4.15;;
54683;SDS011;40582;53.100;6.686;2023-02-27T08:06:06;14.68;;;4.03;;
54683;SDS011;40582;53.100;6.686;2023-02-27T08:08:31;14.82;;;4.00;;
54683;SDS011;40582;53.100;6.686;2023-02-27T08:10:57;15.23;;;3.88;;
54683;SDS011;40582;53.100;6.686;2023-02-27T08:13:23;8.02;;;3.40;;
54683;SDS011;40582;53.100;6.686;2023-02-27T08:15:49;15.23;;;3.97;;
54683;SDS011;40582;53.100;6.686;2023-02-27T08:18:14;13.25;;;3.97;;
54683;SDS011;40582;53.100;6.686;2023-02-27T08:20:40;13.30;;;3.92;;
54683;SDS011;40582;53.100;6.686;2023-02-27T08:23:06;12.02;;;4.22;;
54683;SDS011;40582;53.100;6.686;2023-02-27T08:25:32;10.93;;;4.03;;
54683;SDS011;40582;53.100;6.686;2023-02-27T08:27:58;13.68;;;3.50;;
54683;SDS011;40582;53.100;6.686;2023-02-27T08:30:24;16.10;;;4.10;;
54683;SDS011;40582;53.100;6.686;2023-02-27T08:32:49;12.82;;;3.60;;
54683;SDS011;40582;53.100;6.686;2023-02-27T08:35:15;9.93;;;3.60;;
54683;SDS011;40582;53.100;6.686;2023-02-27T08:37:41;13.20;;;4.50;;
54683;SDS011;40582;53.100;6.686;2023-02-27T08:40:07;9.90;;;3.60;;
54683;SDS011;40582;53.100;6.686;2023-02-27T08:42:35;11.35;;;4.38;;
54683;SDS011;40582;53.100;6.686;2023-02-27T08:45:00;12.43;;;4.43;;
54683;SDS011;40582;53.100;6.686;2023-02-27T08:47:26;14.90;;;3.50;;
54683;SDS011;40582;53.100;6.686;2023-02-27T08:49:52;10.63;;;3.53;;
54683;SDS011;40582;53.100;6.686;2023-02-27T08:52:18;10.27;;;3.85;;
54683;SDS011;40582;53.100;6.686;2023-02-27T08:54:43;13.68;;;3.72;;
54683;SDS011;40582;53.100;6.686;2023-02-27T08:57:09;10.38;;;3.20;;
54683;SDS011;40582;53.100;6.686;2023-02-27T08:59:35;12.43;;;3.28;;
54683;SDS011;40582;53.100;6.686;2023-02-27T09:02:00;12.27;;;3.38;;
54683;SDS011;40582;53.100;6.686;2023-02-27T09:04:26;10.45;;;3.20;;
54683;SDS011;40582;53.100;6.686;2023-02-27T09:06:52;11.63;;;3.60;;
54683;SDS011;40582;53.100;6.686;2023-02-27T09:09:18;11.20;;;3.42;;
54683;SDS011;40582;53.100;6.686;2023-02-27T09:11:44;14.43;;;3.15;;
54683;SDS011;40582;53.100;6.686;2023-02-27T09:14:10;12.45;;;3.25;;
54683;SDS011;40582;53.100;6.686;2023-02-27T09:16:37;15.40;;;3.63;;
54683;SDS011;40582;53.100;6.686;2023-02-27T09:19:03;17.10;;;3.53;;
54683;SDS011;40582;53.100;6.686;2023-02-27T09:21:29;16.92;;;3.25;;
54683;SDS011;40582;53.100;6.686;2023-02-27T09:23:55;18.88;;;4.03;;
54683;SDS011;40582;53.100;6.686;2023-02-27T09:26:22;19.25;;;5.05;;
54683;SDS011;40582;53.100;6.686;2023-02-27T09:28:49;17.35;;;3.58;;
54683;SDS011;40582;53.100;6.686;2023-02-27T09:31:14;19.73;;;3.95;;
54683;SDS011;40582;53.100;6.686;2023-02-27T09:33:41;18.80;;;3.47;;
54683;SDS011;40582;53.100;6.686;2023-02-27T09:36:08;7.88;;;2.95;;
54683;SDS011;40582;53.100;6.686;2023-02-27T09:38:34;15.75;;;2.97;;
54683;SDS011;40582;53.100;6.686;2023-02-27T09:41:01;14.10;;;2.72;;
54683;SDS011;40582;53.100;6.686;2023-02-27T09:43:33;14.18;;;3.20;;
54683;SDS011;40582;53.100;6.686;2023-02-27T09:46:08;15.68;;;2.72;;
54683;SDS011;40582;53.100;6.686;2023-02-27T09:48:48;14.05;;;3.25;;
54683;SDS011;40582;53.100;6.686;2023-02-27T09:51:17;8.73;;;2.67;;
54683;SDS011;40582;53.100;6.686;2023-02-27T09:53:53;14.73;;;2.92;;
54683;SDS011;40582;53.100;6.686;2023-02-27T09:56:32;13.05;;;2.33;;
54683;SDS011;40582;53.100;6.686;2023-02-27T09:59:25;12.15;;;2.63;;
54683;SDS011;40582;53.100;6.686;2023-02-27T10:01:54;13.13;;;2.45;;
54683;SDS011;40582;53.100;6.686;2023-02-27T10:04:39;14.35;;;2.50;;
54683;SDS011;40582;53.100;6.686;2023-02-27T10:13:05;12.15;;;2.45;;
54683;SDS011;40582;53.100;6.686;2023-02-27T10:15:53;9.00;;;2.30;;
54683;SDS011;40582;53.100;6.686;2023-02-27T10:18:40;6.18;;;1.67;;
54683;SDS011;40582;53.100;6.686;2023-02-27T10:21:29;7.70;;;1.95;;
54683;SDS011;40582;53.100;6.686;2023-02-27T10:24:06;7.30;;;1.98;;
54683;SDS011;40582;53.100;6.686;2023-02-27T10:26:47;5.28;;;1.73;;
54683;SDS011;40582;53.100;6.686;2023-02-27T10:31:56;6.83;;;1.90;;
54683;SDS011;40582;53.100;6.686;2023-02-27T10:34:34;10.40;;;2.03;;
54683;SDS011;40582;53.100;6.686;2023-02-27T10:37:03;5.50;;;1.60;;
54683;SDS011;40582;53.100;6.686;2023-02-27T10:39:30;7.00;;;1.70;;
54683;SDS011;40582;53.100;6.686;2023-02-27T10:42:23;12.15;;;2.15;;
54683;SDS011;40582;53.100;6.686;2023-02-27T10:44:51;5.72;;;2.13;;
54683;SDS011;40582;53.100;6.686;2023-02-27T10:47:20;5.20;;;1.60;;
54683;SDS011;40582;53.100;6.686;2023-02-27T10:49:47;2.45;;;1.27;;
54683;SDS011;40582;53.100;6.686;2023-02-27T10:52:14;4.40;;;1.17;;
54683;SDS011;40582;53.100;6.686;2023-02-27T10:54:41;4.68;;;1.83;;
54683;SDS011;40582;53.100;6.686;2023-02-27T10:59:53;9.98;;;3.13;;
54683;SDS011;40582;53.100;6.686;2023-02-27T11:02:34;8.45;;;2.97;;
54683;SDS011;40582;53.100;6.686;2023-02-27T11:05:03;8.55;;;1.88;;
54683;SDS011;40582;53.100;6.686;2023-02-27T11:07:41;4.70;;;1.45;;
54683;SDS011;40582;53.100;6.686;2023-02-27T11:12:36;3.75;;;1.05;;
54683;SDS011;40582;53.100;6.686;2023-02-27T11:15:20;5.18;;;1.17;;
54683;SDS011;40582;53.100;6.686;2023-02-27T11:17:47;6.97;;;1.67;;
54683;SDS011;40582;53.100;6.686;2023-02-27T11:23:13;2.75;;;1.00;;
54683;SDS011;40582;53.100;6.686;2023-02-27T11:25:47;7.57;;;1.60;;
54683;SDS011;40582;53.100;6.686;2023-02-27T11:33:24;2.50;;;1.17;;
54683;SDS011;40582;53.100;6.686;2023-02-27T11:35:52;3.95;;;1.27;;
54683;SDS011;40582;53.100;6.686;2023-02-27T11:38:20;1.45;;;0.93;;
54683;SDS011;40582;53.100;6.686;2023-02-27T11:40:57;4.78;;;0.93;;
54683;SDS011;40582;53.100;6.686;2023-02-27T11:43:27;1.02;;;0.85;;
54683;SDS011;40582;53.100;6.686;2023-02-27T11:45:59;1.20;;;0.80;;
54683;SDS011;40582;53.100;6.686;2023-02-27T11:48:30;1.95;;;1.10;;
54683;SDS011;40582;53.100;6.686;2023-02-27T11:56:36;2.15;;;1.08;;
54683;SDS011;40582;53.100;6.686;2023-02-27T12:01:45;4.05;;;1.20;;
54683;SDS011;40582;53.100;6.686;2023-02-27T12:04:32;5.47;;;0.95;;
54683;SDS011;40582;53.100;6.686;2023-02-27T12:12:45;1.90;;;1.00;;
54683;SDS011;40582;53.100;6.686;2023-02-27T12:15:33;3.72;;;1.20;;
54683;SDS011;40582;53.100;6.686;2023-02-27T12:18:15;4.38;;;1.75;;
54683;SDS011;40582;53.100;6.686;2023-02-27T12:21:12;3.97;;;1.13;;
54683;SDS011;40582;53.100;6.686;2023-02-27T12:23:52;1.98;;;0.73;;
54683;SDS011;40582;53.100;6.686;2023-02-27T12:26:33;5.82;;;1.30;;
54683;SDS011;40582;53.100;6.686;2023-02-27T12:29:03;3.55;;;1.30;;
54683;SDS011;40582;53.100;6.686;2023-02-27T12:31:59;3.53;;;1.48;;
54683;SDS011;40582;53.100;6.686;2023-02-27T12:37:16;4.13;;;1.08;;
54683;SDS011;40582;53.100;6.686;2023-02-27T12:39:48;2.45;;;0.80;;
54683;SDS011;40582;53.100;6.686;2023-02-27T12:42:22;4.25;;;1.00;;
54683;SDS011;40582;53.100;6.686;2023-02-27T12:50:43;5.47;;;1.20;;
54683;SDS011;40582;53.100;6.686;2023-02-27T12:53:33;3.17;;;1.40;;
54683;SDS011;40582;53.100;6.686;2023-02-27T12:56:02;3.42;;;1.38;;
54683;SDS011;40582;53.100;6.686;2023-02-27T13:03:59;4.43;;;1.23;;
54683;SDS011;40582;53.100;6.686;2023-02-27T13:06:39;6.93;;;1.20;;
54683;SDS011;40582;53.100;6.686;2023-02-27T13:09:27;4.25;;;1.20;;
54683;SDS011;40582;53.100;6.686;2023-02-27T13:14:47;3.00;;;1.20;;
54683;SDS011;40582;53.100;6.686;2023-02-27T13:26:23;4.93;;;1.10;;
54683;SDS011;40582;53.100;6.686;2023-02-27T13:28:49;4.00;;;1.00;;
54683;SDS011;40582;53.100;6.686;2023-02-27T13:31:24;4.68;;;1.30;;
54683;SDS011;40582;53.100;6.686;2023-02-27T13:34:37;4.35;;;1.23;;
54683;SDS011;40582;53.100;6.686;2023-02-27T13:37:06;4.28;;;1.50;;
54683;SDS011;40582;53.100;6.686;2023-02-27T13:44:51;4.85;;;1.27;;
54683;SDS011;40582;53.100;6.686;2023-02-27T13:52:28;3.78;;;1.25;;
54683;SDS011;40582;53.100;6.686;2023-02-27T13:54:55;4.18;;;1.13;;
54683;SDS011;40582;53.100;6.686;2023-02-27T13:57:39;3.30;;;1.27;;
54683;SDS011;40582;53.100;6.686;2023-02-27T14:00:06;3.88;;;1.10;;
54683;SDS011;40582;53.100;6.686;2023-02-27T14:02:52;2.05;;;0.95;;
54683;SDS011;40582;53.100;6.686;2023-02-27T14:05:40;2.38;;;0.95;;
54683;SDS011;40582;53.100;6.686;2023-02-27T14:19:01;4.57;;;1.40;;
54683;SDS011;40582;53.100;6.686;2023-02-27T14:24:59;4.47;;;0.95;;
54683;SDS011;40582;53.100;6.686;2023-02-27T14:27:26;7.68;;;1.20;;
54683;SDS011;40582;53.100;6.686;2023-02-27T14:32:24;4.80;;;1.20;;
54683;SDS011;40582;53.100;6.686;2023-02-27T14:34:55;4.53;;;1.10;;
54683;SDS011;40582;53.100;6.686;2023-02-27T14:37:22;3.05;;;0.93;;
54683;SDS011;40582;53.100;6.686;2023-02-27T14:39:51;7.15;;;1.25;;
54683;SDS011;40582;53.100;6.686;2023-02-27T14:45:22;3.05;;;0.98;;
54683;SDS011;40582;53.100;6.686;2023-02-27T14:47:49;1.73;;;0.80;;
54683;SDS011;40582;53.100;6.686;2023-02-27T14:52:52;3.05;;;0.90;;
54683;SDS011;40582;53.100;6.686;2023-02-27T14:55:22;3.50;;;0.93;;
54683;SDS011;40582;53.100;6.686;2023-02-27T15:00:33;6.90;;;1.33;;
54683;SDS011;40582;53.100;6.686;2023-02-27T15:02:59;5.45;;;0.98;;
54683;SDS011;40582;53.100;6.686;2023-02-27T15:05:31;3.38;;;0.93;;
54683;SDS011;40582;53.100;6.686;2023-02-27T15:07:57;6.72;;;1.50;;
54683;SDS011;40582;53.100;6.686;2023-02-27T15:10:26;6.13;;;1.02;;
54683;SDS011;40582;53.100;6.686;2023-02-27T15:13:00;3.33;;;0.98;;
54683;SDS011;40582;53.100;6.686;2023-02-27T15:15:26;4.10;;;1.20;;
54683;SDS011;40582;53.100;6.686;2023-02-27T15:17:53;4.85;;;1.08;;
54683;SDS011;40582;53.100;6.686;2023-02-27T15:20:29;4.13;;;1.20;;
54683;SDS011;40582;53.100;6.686;2023-02-27T15:23:00;3.97;;;1.08;;
54683;SDS011;40582;53.100;6.686;2023-02-27T15:25:44;6.38;;;1.42;;
54683;SDS011;40582;53.100;6.686;2023-02-27T15:28:20;2.90;;;0.88;;
54683;SDS011;40582;53.100;6.686;2023-02-27T15:30:48;4.30;;;1.23;;
54683;SDS011;40582;53.100;6.686;2023-02-27T15:33:15;3.40;;;0.90;;
54683;SDS011;40582;53.100;6.686;2023-02-27T15:35:45;5.53;;;1.10;;
54683;SDS011;40582;53.100;6.686;2023-02-27T15:38:30;4.30;;;1.20;;
54683;SDS011;40582;53.100;6.686;2023-02-27T15:40:59;9.20;;;1.52;;
54683;SDS011;40582;53.100;6.686;2023-02-27T15:43:27;6.88;;;1.40;;
54683;SDS011;40582;53.100;6.686;2023-02-27T15:45:53;3.67;;;1.20;;
54683;SDS011;40582;53.100;6.686;2023-02-27T15:48:20;5.28;;;1.30;;
54683;SDS011;40582;53.100;6.686;2023-02-27T15:50:47;4.15;;;1.00;;
54683;SDS011;40582;53.100;6.686;2023-02-27T15:53:20;7.38;;;1.30;;
54683;SDS011;40582;53.100;6.686;2023-02-27T15:55:49;6.22;;;1.55;;
54683;SDS011;40582;53.100;6.686;2023-02-27T15:58:33;3.92;;;1.30;;
54683;SDS011;40582;53.100;6.686;2023-02-27T16:01:09;4.20;;;1.15;;
54683;SDS011;40582;53.100;6.686;2023-02-27T16:03:42;3.85;;;1.20;;
54683;SDS011;40582;53.100;6.686;2023-02-27T16:06:19;4.45;;;1.20;;
54683;SDS011;40582;53.100;6.686;2023-02-27T16:09:00;4.82;;;1.35;;
54683;SDS011;40582;53.100;6.686;2023-02-27T16:11:39;5.50;;;1.10;;
54683;SDS011;40582;53.100;6.686;2023-02-27T16:14:05;7.82;;;1.58;;
54683;SDS011;40582;53.100;6.686;2023-02-27T16:16:54;3.70;;;1.27;;
54683;SDS011;40582;53.100;6.686;2023-02-27T16:24:35;7.35;;;1.65;;
54683;SDS011;40582;53.100;6.686;2023-02-27T16:27:00;5.18;;;1.00;;
54683;SDS011;40582;53.100;6.686;2023-02-27T16:29:29;8.25;;;1.50;;
54683;SDS011;40582;53.100;6.686;2023-02-27T16:31:58;3.78;;;1.30;;
54683;SDS011;40582;53.100;6.686;2023-02-27T16:34:27;4.35;;;1.50;;
54683;SDS011;40582;53.100;6.686;2023-02-27T16:37:00;6.80;;;1.38;;
54683;SDS011;40582;53.100;6.686;2023-02-27T16:39:27;8.73;;;1.40;;
54683;SDS011;40582;53.100;6.686;2023-02-27T16:41:54;6.45;;;1.65;;
54683;SDS011;40582;53.100;6.686;2023-02-27T16:44:22;6.30;;;1.38;;
54683;SDS011;40582;53.100;6.686;2023-02-27T16:46:49;11.75;;;2.50;;
54683;SDS011;40582;53.100;6.686;2023-02-27T16:49:20;6.57;;;1.83;;
54683;SDS011;40582;53.100;6.686;2023-02-27T16:51:48;6.82;;;2.00;;
54683;SDS011;40582;53.100;6.686;2023-02-27T16:54:15;14.45;;;7.25;;
54683;SDS011;40582;53.100;6.686;2023-02-27T16:56:41;24.25;;;16.20;;
54683;SDS011;40582;53.100;6.686;2023-02-27T16:59:14;10.32;;;4.45;;
54683;SDS011;40582;53.100;6.686;2023-02-27T17:02:00;11.80;;;5.75;;
54683;SDS011;40582;53.100;6.686;2023-02-27T17:04:29;12.00;;;7.63;;
54683;SDS011;40582;53.100;6.686;2023-02-27T17:06:56;9.98;;;4.35;;
54683;SDS011;40582;53.100;6.686;2023-02-27T17:09:23;12.50;;;2.97;;
54683;SDS011;40582;53.100;6.686;2023-02-27T17:11:51;5.80;;;2.38;;
54683;SDS011;40582;53.100;6.686;2023-02-27T17:14:17;10.68;;;3.08;;
54683;SDS011;40582;53.100;6.686;2023-02-27T17:16:42;7.10;;;3.45;;
54683;SDS011;40582;53.100;6.686;2023-02-27T17:19:08;12.75;;;4.47;;
54683;SDS011;40582;53.100;6.686;2023-02-27T17:21:34;10.88;;;4.80;;
54683;SDS011;40582;53.100;6.686;2023-02-27T17:24:00;9.98;;;3.80;;
54683;SDS011;40582;53.100;6.686;2023-02-27T17:26:26;8.00;;;3.47;;
54683;SDS011;40582;53.100;6.686;2023-02-27T17:28:52;7.65;;;3.30;;
54683;SDS011;40582;53.100;6.686;2023-02-27T17:31:19;11.65;;;2.70;;
54683;SDS011;40582;53.100;6.686;2023-02-27T17:33:51;17.70;;;8.60;;
54683;SDS011;40582;53.100;6.686;2023-02-27T17:36:20;42.15;;;22.05;;
54683;SDS011;40582;53.100;6.686;2023-02-27T17:38:47;39.38;;;19.25;;
54683;SDS011;40582;53.100;6.686;2023-02-27T17:41:18;25.70;;;13.82;;
54683;SDS011;40582;53.100;6.686;2023-02-27T17:43:46;19.50;;;8.15;;
54683;SDS011;40582;53.100;6.686;2023-02-27T17:46:14;7.82;;;4.28;;